IDs: Format: Raw Decoded Include TAF

Data at: 2031 UTC 23 Mar 2018

METAR for:KJCT (Junction/Kimble Cnty, TX, US)
Text:KJCT 231951Z AUTO 19016G23KT 10SM CLR 25/16 A2999 RMK AO2 SLP122 T02500156 $
Temperature: 25.0°C ( 77°F)
Dewpoint: 15.6°C ( 60°F) [RH = 56%]
Pressure (altimeter):29.99 inches Hg (1015.7 mb) [Sea level pressure: 1012.2 mb]
Winds:from the S (190 degrees) at 18 MPH (16 knots; 8.2 m/s) gusting to 26 MPH (23 knots; 11.8 m/s)
Visibility:10 or more sm (16+ km)
Ceiling:at least 12,000 feet AGL
Clouds:sky clear below 12,000 feet AGL
QC Flag:automated observation with no human augmentation; SOME DATA ABOVE MAY BE INACCURATE!!!"$" is an indication the sensor requires maintenance.